createdAt,value
2018-04-09T00:07:19.686Z,7.21
2018-04-09T00:17:14.513Z,7.23
2018-04-09T00:27:09.564Z,7.38
2018-04-09T00:37:06.698Z,7.34
2018-04-09T00:47:02.372Z,6.96
2018-04-09T00:56:58.947Z,7.01
2018-04-09T01:06:55.530Z,6.94
2018-04-09T01:16:50.705Z,6.50
2018-04-09T01:26:48.476Z,6.41
2018-04-09T01:36:45.470Z,6.44
2018-04-09T01:46:42.907Z,6.17
2018-04-09T01:56:40.385Z,6.08
2018-04-09T02:06:37.469Z,6.00
2018-04-09T02:16:32.740Z,5.88
2018-04-09T02:26:30.508Z,5.86
2018-04-09T02:36:26.052Z,5.92
2018-04-09T02:46:22.856Z,5.89
2018-04-09T02:56:17.738Z,5.83
2018-04-09T03:06:13.154Z,5.89
2018-04-09T03:16:10.412Z,5.81
2018-04-09T03:26:07.832Z,5.86
2018-04-09T03:36:01.609Z,5.60
2018-04-09T03:45:59.588Z,5.41
2018-04-09T03:55:56.668Z,5.18
2018-04-09T04:05:50.769Z,5.20
2018-04-09T04:15:48.700Z,5.28
2018-04-09T04:25:45.920Z,5.17
2018-04-09T04:35:50.545Z,5.16
2018-04-09T04:45:42.277Z,5.53
2018-04-09T04:55:23.910Z,5.72
2018-04-09T05:05:21.457Z,5.88
2018-04-09T05:15:16.536Z,6.27
2018-04-09T05:25:15.481Z,6.90
2018-04-09T05:35:11.951Z,7.38
2018-04-09T05:45:08.509Z,7.91
2018-04-09T05:55:07.147Z,8.14
2018-04-09T06:05:05.137Z,8.58
2018-04-09T06:14:59.189Z,9.03
2018-04-09T06:24:57.027Z,9.40
2018-04-09T06:34:54.354Z,10.03
2018-04-09T06:44:52.824Z,10.83
2018-04-09T06:54:49.134Z,11.51
2018-04-09T07:04:47.173Z,12.41
2018-04-09T07:14:45.502Z,12.97
2018-04-09T07:24:24.266Z,13.45
2018-04-09T07:33:53.754Z,14.20
2018-04-09T07:43:31.406Z,14.52
2018-04-09T07:53:07.082Z,14.50
2018-04-09T08:02:52.654Z,14.59
2018-04-09T08:12:21.140Z,15.35
2018-04-09T08:21:58.250Z,15.67
2018-04-09T08:31:34.275Z,15.96
2018-04-09T08:41:15.094Z,15.99
2018-04-09T08:50:52.391Z,16.30
2018-04-09T09:00:29.766Z,16.45
2018-04-09T09:10:07.933Z,17.28
2018-04-09T09:19:46.310Z,18.24
2018-04-09T09:29:24.502Z,18.80
2018-04-09T09:39:02.674Z,19.72
2018-04-09T09:48:40.828Z,19.80
2018-04-09T09:58:18.745Z,20.59
2018-04-09T10:07:56.169Z,20.83
2018-04-09T10:17:34.098Z,21.09
2018-04-09T10:27:11.560Z,21.17
2018-04-09T10:36:47.589Z,21.39
2018-04-09T10:46:28.333Z,21.26
2018-04-09T10:56:05.954Z,22.02
2018-04-09T11:05:44.452Z,22.05
2018-04-09T11:15:21.945Z,22.87
2018-04-09T11:24:58.758Z,22.17
2018-04-09T11:34:35.333Z,23.29
2018-04-09T11:44:18.187Z,24.50
2018-04-09T11:53:49.528Z,25.17
2018-04-09T12:03:28.534Z,26.25
2018-04-09T12:13:04.655Z,25.17
2018-04-09T12:22:41.440Z,25.37
2018-04-09T12:32:18.021Z,24.32
2018-04-09T12:41:53.323Z,23.05
2018-04-09T12:51:30.561Z,24.11
2018-04-09T13:10:50.233Z,25.77
2018-04-09T13:20:29.750Z,26.46
2018-04-09T13:30:09.658Z,27.41
2018-04-09T13:39:49.569Z,28.87
2018-04-09T13:49:28.997Z,29.29
2018-04-09T13:59:02.697Z,25.89
2018-04-09T14:08:37.660Z,24.79
2018-04-09T14:18:10.695Z,23.53
2018-04-09T14:27:47.997Z,25.37
2018-04-09T14:37:30.020Z,24.34
2018-04-09T14:46:58.467Z,22.59
2018-04-09T14:56:33.927Z,23.45
2018-04-09T15:06:17.392Z,25.20
2018-04-09T15:15:55.258Z,25.01
2018-04-09T15:25:32.441Z,24.26
2018-04-09T15:35:07.024Z,23.64
2018-04-09T15:44:46.776Z,24.27
2018-04-09T15:54:18.874Z,23.05
2018-04-09T16:03:56.174Z,22.12
2018-04-09T16:13:27.209Z,21.63
2018-04-09T16:22:54.858Z,21.29
2018-04-09T16:32:31.940Z,20.99
2018-04-09T16:42:03.932Z,20.61
2018-04-09T16:51:40.196Z,20.61
2018-04-09T17:01:18.080Z,20.62
2018-04-09T17:10:56.647Z,20.42
2018-04-09T17:20:25.163Z,20.37
2018-04-09T17:30:01.657Z,20.15
2018-04-09T17:39:38.479Z,19.57
2018-04-09T17:49:14.791Z,18.94
2018-04-09T17:58:54.611Z,18.39
2018-04-09T18:08:22.018Z,18.04
2018-04-09T18:18:02.364Z,17.87
2018-04-09T18:27:30.488Z,17.74
2018-04-09T18:37:07.420Z,17.63
2018-04-09T18:46:44.213Z,17.38
2018-04-09T18:56:22.874Z,17.18
2018-04-09T19:05:51.773Z,17.17
2018-04-09T19:15:27.109Z,17.02
2018-04-09T19:25:03.757Z,16.66
2018-04-09T19:34:40.710Z,16.65
2018-04-09T19:44:17.447Z,16.67
2018-04-09T19:53:54.245Z,16.29
2018-04-09T20:03:30.785Z,16.34
2018-04-09T20:13:07.226Z,15.99
2018-04-09T20:22:43.852Z,15.73
2018-04-09T20:32:24.262Z,15.52
2018-04-09T20:41:52.840Z,15.42
2018-04-09T20:51:29.981Z,15.35
2018-04-09T21:01:24.198Z,15.26
2018-04-09T21:11:21.409Z,15.21
2018-04-09T21:21:17.237Z,15.03
2018-04-09T21:31:11.266Z,14.91
2018-04-09T21:41:07.353Z,14.78
2018-04-09T21:51:02.528Z,14.65
2018-04-09T22:00:57.567Z,14.42
2018-04-09T22:10:53.534Z,14.34
2018-04-09T22:20:50.272Z,14.24
2018-04-09T22:30:46.024Z,14.10
2018-04-09T22:40:41.807Z,13.94
2018-04-09T22:50:38.639Z,13.76
2018-04-09T23:00:33.896Z,13.33
2018-04-09T23:10:28.640Z,12.97
2018-04-09T23:20:26.882Z,13.00
2018-04-09T23:30:23.276Z,12.69
2018-04-09T23:40:17.861Z,12.94
2018-04-09T23:50:15.046Z,12.23
